»·PEaware :: AAL2514 KLAS-KDFW

AAL2514 :: KLAS-KDFW

FLIGHT INFORMATION

Flight Status: Arrived
Operator:
American Airlines
More flights by this operator :: More flights under this callsign
Pilot: Drew L. (13237)
Aircraft: MCDONNELL-DOUGLAS MD-88
(MD88)
More flights by this aircraft type
Origin: KLAS McCarran Intl
United States
Destination: KDFW Dallas-Ft Worth Intl
United States
More flights between these airports :: More routes between these airports
Route: COWBY6 INW ZUN J78 ABQ J72 TURKI JOVEM4
File this flight plan on PilotEdge
Remarks: Sample flight plan
Altitude:
(Current/Filed)
35,000ft
Speed:
(Current/Filed)
115kts
Departed: 28-May-17 06:12 PM
Arrived: 28-May-17 08:20 PM
Distance/Time
Traveled:
915nm/2:08
Distance/Time
To Go:
Arrived

Flight Plot

Page will automatically refresh every two minutes.

Flight plan parsing failed; only flown route is shown


Map Options




Map Legend


Flown Route
Filed Route
Departure Airport
Arrival Airport
Navaid (VOR, NDB)
Fix

Horizontal Profiles

Position Reports

Time Latitude Longitude Heading Altitude Ground
Speed
28-May-17 17:44 36.080620 -115.140641 134 2147ft 0kts
28-May-17 17:45 36.080620 -115.140641 134 2147ft 0kts
28-May-17 17:46 36.080620 -115.140641 134 2147ft 0kts
28-May-17 17:47 36.080620 -115.140641 134 2147ft 0kts
28-May-17 17:48 36.080620 -115.140641 134 2147ft 0kts
28-May-17 17:49 36.080620 -115.140641 134 2147ft 0kts
28-May-17 17:50 36.080620 -115.140641 134 2147ft 0kts
28-May-17 17:51 36.080620 -115.140641 134 2147ft 0kts
28-May-17 17:52 36.080620 -115.140641 134 2147ft 0kts
28-May-17 17:53 36.080620 -115.140641 134 2147ft 0kts
28-May-17 17:54 36.080620 -115.140641 134 2147ft 0kts
28-May-17 17:55 36.080620 -115.140641 134 2147ft 0kts
28-May-17 17:56 36.080620 -115.140641 134 2147ft 0kts
28-May-17 17:57 36.080620 -115.140641 134 2147ft 0kts
28-May-17 17:58 36.080620 -115.140641 134 2147ft 0kts
28-May-17 17:59 36.080620 -115.140641 134 2147ft 0kts
28-May-17 18:00 36.080620 -115.140641 134 2147ft 0kts
28-May-17 18:01 36.080620 -115.140641 134 2147ft 0kts
28-May-17 18:02 36.080620 -115.140641 134 2147ft 0kts
28-May-17 18:03 36.080620 -115.140641 134 2147ft 0kts
28-May-17 18:04 36.081275 -115.141461 164 2147ft 1kts
28-May-17 18:05 36.081259 -115.141455 164 2147ft 0kts
28-May-17 18:06 36.081200 -115.141434 164 2147ft 0kts
28-May-17 18:07 36.080460 -115.141610 181 2147ft 0kts
28-May-17 18:08 36.080422 -115.141612 181 2147ft 1kts
28-May-17 18:09 36.078246 -115.140960 95 2147ft 15kts
28-May-17 18:10 36.078247 -115.133973 88 2147ft 18kts
28-May-17 18:11 36.078245 -115.129015 90 2147ft 8kts
28-May-17 18:12 36.077461 -115.121542 134 2147ft 0kts
28-May-17 18:13 36.077356 -115.121429 144 2147ft 7kts
28-May-17 18:14 36.076351 -115.144089 272 2309ft 179kts
28-May-17 18:15 36.076215 -115.214376 270 5439ft 252kts
28-May-17 18:16 36.030025 -115.288838 189 8909ft 351kts
28-May-17 18:17 35.935114 -115.290933 162 12384ft 294kts
28-May-17 18:18 35.860977 -115.246328 127 16116ft 331kts
28-May-17 18:19 35.834999 -115.133521 106 19382ft 374kts
28-May-17 18:20 35.827526 -114.995493 82 21259ft 431kts
28-May-17 18:21 35.840365 -114.853521 83 22650ft 482kts
28-May-17 18:22 35.854179 -114.689690 83 23493ft 481kts
28-May-17 18:23 35.868209 -114.525732 83 25497ft 480kts
28-May-17 18:24 35.882344 -114.363081 83 27498ft 477kts
28-May-17 18:25 35.896486 -114.202852 83 29454ft 475kts
28-May-17 18:26 35.910882 -114.042093 83 31428ft 472kts
28-May-17 18:27 35.920552 -113.882311 97 33406ft 469kts
28-May-17 18:28 35.886514 -113.725826 106 35009ft 486kts
28-May-17 18:29 35.852653 -113.568705 105 35024ft 490kts
28-May-17 18:30 35.819492 -113.413417 105 35025ft 490kts
28-May-17 18:31 35.785978 -113.255450 106 35074ft 490kts
28-May-17 18:32 35.751879 -113.093734 105 35167ft 490kts
28-May-17 18:33 35.717948 -112.931792 105 35237ft 490kts
28-May-17 18:34 35.684204 -112.769703 105 35239ft 490kts
28-May-17 18:35 35.650801 -112.608210 105 35240ft 490kts
28-May-17 18:36 35.617447 -112.445904 105 35241ft 490kts
28-May-17 18:37 35.573919 -112.289733 115 35238ft 488kts
28-May-17 18:38 35.520297 -112.137118 114 35236ft 488kts
28-May-17 18:39 35.467277 -111.984285 114 35237ft 489kts
28-May-17 18:40 35.414332 -111.831093 114 35238ft 489kts
28-May-17 18:41 35.361794 -111.678512 114 35239ft 489kts
28-May-17 18:42 35.309184 -111.525152 114 35240ft 489kts
28-May-17 18:43 35.256830 -111.371974 113 35241ft 489kts
28-May-17 18:44 35.205040 -111.219893 114 35235ft 489kts
28-May-17 18:45 35.153111 -111.066834 114 35104ft 490kts
28-May-17 18:46 35.101215 -110.913292 113 35102ft 490kts
28-May-17 18:47 35.059002 -110.755444 97 35105ft 493kts
28-May-17 18:48 35.049516 -110.588598 94 35105ft 493kts
28-May-17 18:49 35.038968 -110.422334 94 35106ft 493kts
28-May-17 18:50 35.028653 -110.256723 94 35100ft 493kts
28-May-17 18:51 35.018497 -110.090046 94 35101ft 493kts
28-May-17 18:52 35.008612 -109.924028 94 35206ft 493kts
28-May-17 18:53 34.998930 -109.757674 94 35233ft 493kts
28-May-17 18:54 34.989448 -109.590813 93 35132ft 494kts
28-May-17 18:55 34.980217 -109.424316 93 35133ft 494kts
28-May-17 18:56 34.971280 -109.259164 94 35127ft 494kts
28-May-17 18:57 34.967993 -109.092559 86 35208ft 494kts
28-May-17 18:58 34.972900 -108.925442 87 35211ft 494kts
28-May-17 18:59 34.977194 -108.758327 87 35212ft 494kts
28-May-17 19:00 34.981680 -108.592231 87 35213ft 494kts
28-May-17 19:01 34.986423 -108.424915 87 35268ft 494kts
28-May-17 19:02 34.991249 -108.262612 87 35262ft 494kts
28-May-17 19:03 34.996443 -108.095425 87 35263ft 494kts
28-May-17 19:04 35.001858 -107.928501 87 35265ft 494kts
28-May-17 19:05 35.007492 -107.761863 87 35266ft 494kts
28-May-17 19:06 35.013462 -107.594879 88 35269ft 490kts
28-May-17 19:07 35.019393 -107.430054 88 35266ft 488kts
28-May-17 19:08 35.025566 -107.266912 88 35207ft 488kts
28-May-17 19:09 35.032029 -107.101987 88 35208ft 489kts
28-May-17 19:10 35.038753 -106.936391 88 35209ft 489kts
28-May-17 19:11 35.040469 -106.771607 99 35199ft 486kts
28-May-17 19:12 35.015963 -106.610266 102 35184ft 485kts
28-May-17 19:13 34.991471 -106.448352 102 35184ft 486kts
28-May-17 19:14 34.967521 -106.288554 102 35259ft 485kts
28-May-17 19:15 34.943474 -106.126668 102 35261ft 486kts
28-May-17 19:16 34.919772 -105.965607 102 35289ft 485kts
28-May-17 19:17 34.896341 -105.804912 102 35320ft 486kts
28-May-17 19:18 34.871416 -105.643904 103 35308ft 490kts
28-May-17 19:19 34.843286 -105.479304 103 35323ft 498kts
28-May-17 19:20 34.815561 -105.316072 103 35317ft 498kts
28-May-17 19:21 34.787782 -105.151241 103 35317ft 498kts
28-May-17 19:22 34.760251 -104.986497 103 35319ft 498kts
28-May-17 19:23 34.732937 -104.821687 103 35320ft 498kts
28-May-17 19:24 34.705844 -104.656831 102 35321ft 498kts
28-May-17 19:25 34.679111 -104.492778 102 35195ft 498kts
28-May-17 19:26 34.652668 -104.329106 103 35183ft 498kts
28-May-17 19:27 34.626263 -104.164311 102 35182ft 498kts
28-May-17 19:28 34.600093 -103.999596 102 35182ft 498kts
28-May-17 19:29 34.574222 -103.835250 102 35211ft 498kts
28-May-17 19:30 34.548492 -103.670391 102 35213ft 498kts
28-May-17 19:31 34.522930 -103.505183 102 35214ft 498kts
28-May-17 19:32 34.497947 -103.342246 102 35214ft 498kts
28-May-17 19:33 34.472895 -103.177434 102 35208ft 498kts
28-May-17 19:34 34.448067 -103.012603 102 35210ft 498kts
28-May-17 19:35 34.423485 -102.847904 101 35211ft 498kts
28-May-17 19:36 34.399266 -102.684152 101 35212ft 498kts
28-May-17 19:37 34.375141 -102.519532 101 35214ft 498kts
28-May-17 19:38 34.351263 -102.355064 101 35195ft 498kts
28-May-17 19:39 34.327761 -102.191682 101 35181ft 498kts
28-May-17 19:40 34.304204 -102.026354 101 35182ft 498kts
28-May-17 19:41 34.281073 -101.862470 101 35184ft 498kts
28-May-17 19:42 34.258025 -101.697581 101 35185ft 498kts
28-May-17 19:43 34.235236 -101.532956 100 35186ft 498kts
28-May-17 19:44 34.212582 -101.367697 100 35188ft 498kts
28-May-17 19:45 34.190388 -101.204207 101 35181ft 498kts
28-May-17 19:46 34.168244 -101.039428 101 35182ft 498kts
28-May-17 19:47 34.146329 -100.874735 100 35130ft 498kts
28-May-17 19:48 34.124676 -100.710342 100 35130ft 498kts
28-May-17 19:49 34.103130 -100.545070 100 35132ft 498kts
28-May-17 19:50 34.081869 -100.380294 100 35133ft 498kts
28-May-17 19:51 34.060966 -100.216620 100 35126ft 498kts
28-May-17 19:52 34.040117 -100.051618 100 35127ft 498kts
28-May-17 19:53 34.013014 -99.889400 110 34813ft 496kts
28-May-17 19:54 33.973224 -99.729991 108 33821ft 498kts
28-May-17 19:55 33.934695 -99.570147 108 32843ft 499kts
28-May-17 19:56 33.896753 -99.411791 108 31671ft 486kts
28-May-17 19:57 33.863421 -99.271976 108 30356ft 458kts
28-May-17 19:58 33.829066 -99.127239 108 28947ft 448kts
28-May-17 19:59 33.795616 -98.985578 108 27551ft 438kts
28-May-17 20:00 33.762877 -98.846259 107 26224ft 429kts
28-May-17 20:01 33.727759 -98.711568 114 24937ft 418kts
28-May-17 20:02 33.686073 -98.582759 113 23653ft 410kts
28-May-17 20:03 33.645701 -98.456487 113 22373ft 401kts
28-May-17 20:04 33.607708 -98.337260 113 21405ft 395kts
28-May-17 20:05 33.569042 -98.215556 113 20402ft 387kts
28-May-17 20:06 33.530737 -98.096753 114 19389ft 380kts
28-May-17 20:07 33.492904 -97.979639 113 18472ft 374kts
28-May-17 20:08 33.455682 -97.864372 113 17675ft 370kts
28-May-17 20:09 33.418877 -97.750366 113 16879ft 365kts
28-May-17 20:10 33.373011 -97.644655 120 16097ft 359kts
28-May-17 20:11 33.311383 -97.553552 134 15153ft 349kts
28-May-17 20:12 33.250850 -97.473511 136 13320ft 312kts
28-May-17 20:13 33.193470 -97.400831 136 11148ft 298kts
28-May-17 20:14 33.138149 -97.331297 136 8978ft 289kts
28-May-17 20:15 33.092249 -97.273608 136 7115ft 281kts
28-May-17 20:16 33.050855 -97.197477 98 4900ft 280kts
28-May-17 20:17 33.044371 -97.108824 96 3183ft 258kts
28-May-17 20:18 33.031598 -97.038297 105 3156ft 184kts
28-May-17 20:19 32.994624 -97.019981 199 2841ft 161kts
28-May-17 20:20 32.955774 -97.029542 181 1412ft 140kts
28-May-17 20:21 32.921969 -97.029843 180 754ft 142kts
28-May-17 20:22 32.900876 -97.030031 202 612ft 14kts

Navigation Log

Ident Type
Flight plan parsing failed, navigation log unavailable